Van Nuys, CA (91406)

4:21 AM PDT on August 24, 2016 (GMT -0700)
South Northridge | | Change Station

Elev 781 ft 34.21 °N, 118.51 °W | Updated 15 seconds ago

Clear
Clear
65.1 °F
Feels Like 65.1 °F
N
0.0
Wind Variable Wind from SW
Gusts 0.0 mph

Today
High -- | Low -- °F
--% Chance of Precip.
Yesterday
High -- | Low -- °F
Precip. -- in
Pressure 29.99 in
Visibility 10.0 miles
Clouds Clear
Dew Point 59 °F
Humidity 80%
Rainfall 0.00 in
Snow Depth Not available.
6:22 AM 7:29 PM
Waning Gibbous, 58% visible
METAR KVNY 241051Z 12003KT 10SM CLR 20/15 A3002 RMK AO2 SLP156 T02000150
Pressure 29.99 in
Visibility 10.0 miles
Clouds Clear
Dew Point 59 °F
Humidity 80%
Rainfall 0.00 in
Snow Depth Not available.
6:22 AM 7:29 PM
Waning Gibbous, 58% visible
METAR KVNY 241051Z 12003KT 10SM CLR 20/15 A3002 RMK AO2 SLP156 T02000150

10-Day Weather Forecast

Almanac

Astronomy

Aug. 24, 2016 Rise Set
Actual Time
Civil Twilight
Nautical Twilight
Astronomical Twilight
Moon
Length of Visible Light
Length of Day
Tomorrow will be .
, % of the Moon is Illuminated

Today's Extremes

State Highs State Lows

Community

WunderPhotos

Upload Photos

1,934,565 photos uploaded!

WunderBlog® & News

Nearby

Air Quality

  Air Quality AQ Index Pollutant
Not available.

Snow Depth

Station Depth Elevation

Earthquake Activity

City Distance Mag. Time & Date
Minimum magnitude displayed is 2.5.

Coastal Water Temperatures

Place Temperature

Stations

Nearby Weather Stations

Station Location Temp. Windchill Dew Point Humidity Wind Precip. Elev Updated Type
                   

Watches & Warnings

There are currently no watches in effect.